Time;durP1;ratioP1;P1;durP2;ratioP2;P2;SDS_P1;SDS_P2;PMS_P1;PMS_P2;Temp;Humidity;BMP_temperature;BMP_pressure;BME280_temperature;BME280_humidity;BME280_pressure;Samples;Min_cycle;Max_cycle;Signal;HPM_P1;HPM_P2
2021/12/04 00:01:51;;;;;;;61.13;29.48;;;4.70;99.90;;;;;;5050733;28;20064;-80
2021/12/04 00:04:22;;;;;;;59.88;27.75;;;4.70;99.90;;;;;;5009341;28;273585;-80
2021/12/04 00:06:49;;;;;;;62.20;29.50;;;4.70;99.90;;;;;;5012905;28;20061;-80
2021/12/04 00:09:18;;;;;;;62.03;29.92;;;4.70;99.90;;;;;;5023254;28;174502;-81
2021/12/04 00:11:56;;;;;;;63.03;29.52;;;4.70;99.90;;;;;;5041171;28;20072;-80
2021/12/04 00:14:23;;;;;;;59.10;27.38;;;4.70;99.90;;;;;;5009572;28;70244;-81
2021/12/04 00:16:49;;;;;;;66.68;30.08;;;4.70;99.90;;;;;;5035582;28;20060;-81
2021/12/04 00:19:16;;;;;;;59.80;30.02;;;4.70;99.90;;;;;;5021692;28;269037;-80
2021/12/04 00:21:45;;;;;;;56.05;25.45;;;4.70;99.90;;;;;;5044013;28;20048;-81
2021/12/04 00:24:12;;;;;;;66.63;29.10;;;4.70;99.90;;;;;;5026815;28;256607;-81
2021/12/04 00:26:39;;;;;;;62.35;27.83;;;4.60;99.90;;;;;;5015124;28;20068;-81
2021/12/04 00:29:05;;;;;;;62.63;28.67;;;4.70;99.90;;;;;;5028275;28;241471;-81
2021/12/04 00:31:32;;;;;;;61.40;28.30;;;4.70;99.90;;;;;;5049150;28;20060;-81
2021/12/04 00:33:58;;;;;;;57.83;26.83;;;4.70;99.90;;;;;;5016807;28;42143;-82
2021/12/04 00:36:32;;;;;;;59.15;26.45;;;4.60;99.90;;;;;;5030558;28;20447;-81
2021/12/04 00:49:58;;;;;;;80.45;30.77;;;4.70;99.90;;;;;;5035392;28;73914;-81
2021/12/04 00:52:24;;;;;;;68.07;28.70;;;4.60;99.90;;;;;;5033344;28;20053;-81
2021/12/04 00:54:51;;;;;;;73.93;28.60;;;4.60;99.90;;;;;;5015444;28;96548;-81
2021/12/04 00:57:17;;;;;;;67.90;28.83;;;4.60;99.90;;;;;;5028100;28;20087;-81
2021/12/04 00:59:43;;;;;;;77.85;29.75;;;4.70;99.90;;;;;;5019850;28;197106;-82
2021/12/04 01:02:09;;;;;;;89.30;29.65;;;4.70;99.90;;;;;;5041320;28;20057;-82
2021/12/04 01:04:36;;;;;;;68.13;28.13;;;4.60;99.90;;;;;;5012760;28;265078;-82
2021/12/04 01:07:02;;;;;;;62.58;23.95;;;4.60;99.90;;;;;;5032541;28;20057;-82
2021/12/04 01:09:28;;;;;;;76.15;28.00;;;4.60;99.90;;;;;;5029629;28;254626;-82
2021/12/04 01:11:55;;;;;;;81.45;28.88;;;4.70;99.90;;;;;;5028483;28;20119;-81
2021/12/04 01:14:26;;;;;;;76.38;27.85;;;4.60;99.90;;;;;;5017796;28;53503;-81
2021/12/04 01:16:54;;;;;;;79.93;29.35;;;4.60;99.90;;;;;;5028967;28;20056;-81
2021/12/04 01:19:21;;;;;;;70.57;26.42;;;4.60;99.90;;;;;;5017362;28;276087;-81
2021/12/04 01:21:49;;;;;;;77.70;29.20;;;4.60;99.90;;;;;;5036378;28;20075;-82
2021/12/04 01:24:17;;;;;;;79.22;28.27;;;4.60;99.90;;;;;;5029561;28;132262;-81
2021/12/04 01:26:43;;;;;;;74.38;27.60;;;4.70;99.90;;;;;;5046687;28;20049;-81
2021/12/04 01:29:09;;;;;;;84.90;27.52;;;4.60;99.90;;;;;;5042980;28;291161;-81
2021/12/04 01:31:35;;;;;;;77.95;29.38;;;4.60;99.90;;;;;;5061888;28;20045;-82
2021/12/04 01:34:01;;;;;;;86.88;28.58;;;4.60;99.90;;;;;;5037000;28;262462;-82
2021/12/04 01:36:29;;;;;;;83.55;29.17;;;4.60;99.90;;;;;;5057566;28;20045;-82
2021/12/04 01:38:56;;;;;;;76.90;28.40;;;4.70;99.90;;;;;;5038358;28;261127;-81
2021/12/04 01:41:22;;;;;;;80.80;28.60;;;4.60;99.90;;;;;;5054767;28;20060;-81
2021/12/04 01:43:49;;;;;;;71.60;27.10;;;4.70;99.90;;;;;;5036150;28;66460;-80
2021/12/04 01:46:15;;;;;;;81.85;28.10;;;4.70;99.90;;;;;;5053986;28;20070;-81
2021/12/04 01:48:41;;;;;;;77.88;27.02;;;4.60;99.90;;;;;;5014862;28;249430;-80
2021/12/04 01:51:07;;;;;;;82.47;28.05;;;4.70;99.90;;;;;;5042287;28;20049;-81
2021/12/04 01:53:34;;;;;;;83.97;28.98;;;4.70;99.90;;;;;;5023674;28;43537;-83
2021/12/04 01:56:01;;;;;;;85.55;27.60;;;4.70;99.90;;;;;;5027582;28;20060;-82
2021/12/04 01:58:28;;;;;;;76.60;26.38;;;4.70;99.90;;;;;;5029793;28;276434;-81
2021/12/04 02:00:55;;;;;;;80.90;28.15;;;4.70;99.90;;;;;;5057512;28;20044;-82
2021/12/04 02:03:22;;;;;;;78.60;27.93;;;4.60;99.90;;;;;;5015413;28;219806;-82
2021/12/04 02:05:49;;;;;;;76.75;26.50;;;4.70;99.90;;;;;;5030475;28;20064;-80
2021/12/04 02:08:20;;;;;;;77.27;27.37;;;4.70;99.90;;;;;;5009491;28;266448;-82
2021/12/04 02:10:48;;;;;;;;;;;4.70;99.90;;;;;;5048740;28;20693;-81
2021/12/04 02:13:15;;;;;;;70.55;25.67;;;4.70;99.90;;;;;;5029393;28;253971;-82
2021/12/04 02:15:42;;;;;;;61.47;24.75;;;4.60;99.90;;;;;;5048269;28;20061;-82
2021/12/04 02:18:08;;;;;;;58.53;24.50;;;4.60;99.90;;;;;;5015942;28;266247;-82
2021/12/04 02:20:35;;;;;;;59.22;24.10;;;4.60;99.90;;;;;;5031294;28;20060;-81
2021/12/04 02:23:03;;;;;;;53.50;23.55;;;4.60;99.90;;;;;;5028051;28;20607;-80
2021/12/04 02:25:30;;;;;;;60.35;25.52;;;4.70;99.90;;;;;;5022335;28;69628;-81
2021/12/04 02:27:57;;;;;;;53.20;22.25;;;4.70;99.90;;;;;;5045914;28;20045;-82
2021/12/04 02:30:26;;;;;;;52.28;22.33;;;4.60;99.90;;;;;;5031898;28;276771;-82
2021/12/04 02:32:52;;;;;;;45.33;21.10;;;4.60;99.90;;;;;;5061045;28;20056;-81
2021/12/04 02:35:20;;;;;;;48.15;21.98;;;4.60;99.90;;;;;;4999075;28;267675;-82
2021/12/04 02:37:47;;;;;;;43.78;21.70;;;4.60;99.90;;;;;;5032751;28;20127;-81
2021/12/04 02:40:17;;;;;;;47.72;21.45;;;4.60;99.90;;;;;;5010530;28;20053;-82
2021/12/04 02:42:44;;;;;;;43.58;20.67;;;4.60;99.90;;;;;;5016907;28;20059;-81
2021/12/04 02:45:12;;;;;;;51.15;21.33;;;4.60;99.90;;;;;;5009277;28;258244;-80
2021/12/04 02:47:38;;;;;;;44.50;20.17;;;4.60;99.90;;;;;;5030568;28;20056;-81
2021/12/04 02:50:07;;;;;;;40.22;19.23;;;4.60;99.90;;;;;;5027051;28;235682;-82
2021/12/04 02:52:34;;;;;;;44.00;20.02;;;4.60;99.90;;;;;;5031312;28;20061;-82
2021/12/04 02:55:01;;;;;;;43.67;19.50;;;4.60;99.90;;;;;;5018661;28;159693;-81
2021/12/04 02:57:36;;;;;;;42.13;18.63;;;4.60;99.90;;;;;;5044978;28;20053;-81
2021/12/04 03:00:04;;;;;;;39.97;20.25;;;4.60;99.90;;;;;;4998137;28;187200;-81
2021/12/04 03:02:35;;;;;;;36.10;19.05;;;4.60;99.90;;;;;;5043843;28;20538;-80
2021/12/04 03:05:06;;;;;;;39.67;19.02;;;4.60;99.90;;;;;;4900668;28;2999095;-81
2021/12/04 03:07:33;;;;;;;36.30;17.75;;;4.60;99.90;;;;;;5028005;28;20582;-81
2021/12/04 03:09:59;;;;;;;35.90;17.92;;;4.60;99.90;;;;;;5009299;28;161793;-82
2021/12/04 03:12:26;;;;;;;35.65;17.27;;;4.60;99.90;;;;;;5012051;28;20045;-80
2021/12/04 03:14:55;;;;;;;34.25;17.77;;;4.60;99.90;;;;;;4998388;28;104068;-81
2021/12/04 03:17:23;;;;;;;39.15;19.65;;;4.60;99.90;;;;;;5026787;28;20047;-80
2021/12/04 03:19:53;;;;;;;36.58;18.83;;;4.60;99.90;;;;;;5031799;28;106785;-82
2021/12/04 03:22:22;;;;;;;37.03;18.15;;;4.60;99.90;;;;;;5036044;28;20061;-81
2021/12/04 03:24:51;;;;;;;36.15;17.58;;;4.60;99.90;;;;;;5001941;28;21407;-81
2021/12/04 03:27:19;;;;;;;37.80;18.92;;;4.60;99.90;;;;;;5012662;28;20056;-81
2021/12/04 03:30:16;;;;;;;38.67;18.92;;;4.60;99.90;;;;;;5023635;28;269111;-81
2021/12/04 03:35:19;;;;;;;37.75;19.13;;;4.60;99.90;;;;;;5025369;28;249848;-82
2021/12/04 03:43:07;;;;;;;37.45;18.25;;;4.70;99.90;;;;;;5032700;28;20064;-81
2021/12/04 03:45:37;;;;;;;36.65;17.55;;;4.60;99.90;;;;;;5003487;28;20084;-82
2021/12/04 03:50:52;;;;;;;39.25;18.73;;;4.60;99.90;;;;;;4981669;28;20041;-82
2021/12/04 03:53:18;;;;;;;41.65;19.30;;;4.60;99.90;;;;;;4996976;28;44857;-83
2021/12/04 03:55:49;;;;;;;38.08;18.77;;;4.60;99.90;;;;;;5006560;28;20444;-81
2021/12/04 03:58:17;;;;;;;40.40;18.30;;;4.60;99.90;;;;;;4970860;28;220287;-81
2021/12/04 04:00:43;;;;;;;39.60;19.05;;;4.60;99.90;;;;;;4960823;28;20060;-81
2021/12/04 04:03:09;;;;;;;37.53;18.50;;;4.60;99.90;;;;;;4959410;28;95204;-81
2021/12/04 04:05:35;;;;;;;41.40;18.35;;;4.60;99.90;;;;;;4960934;28;140978;-81
2021/12/04 04:08:02;;;;;;;40.45;18.23;;;4.60;99.90;;;;;;5004808;28;20053;-80
2021/12/04 04:10:28;;;;;;;43.83;18.58;;;4.60;99.90;;;;;;4963741;28;20057;-81
2021/12/04 04:12:54;;;;;;;42.42;17.45;;;4.60;99.90;;;;;;4989057;28;20481;-81
2021/12/04 04:15:22;;;;;;;41.70;18.55;;;4.60;99.90;;;;;;4977755;28;33263;-82
2021/12/04 04:17:49;;;;;;;38.90;18.13;;;4.60;99.90;;;;;;5005871;28;20057;-82
2021/12/04 04:20:19;;;;;;;40.33;17.48;;;4.60;99.90;;;;;;4977474;28;77562;-82
2021/12/04 04:22:46;;;;;;;42.83;17.88;;;4.60;99.90;;;;;;4972990;28;20083;-81
2021/12/04 04:25:14;;;;;;;40.75;17.95;;;4.60;99.90;;;;;;4971186;28;153529;-81
2021/12/04 04:27:40;;;;;;;46.95;18.08;;;4.60;99.90;;;;;;4986580;28;20056;-82
2021/12/04 04:30:14;;;;;;;44.95;18.85;;;4.60;99.90;;;;;;5018036;28;170490;-82
2021/12/04 04:32:44;;;;;;;44.60;18.42;;;4.60;99.90;;;;;;5047798;28;20049;-82
2021/12/04 04:35:14;;;;;;;40.03;17.27;;;4.50;99.90;;;;;;5011753;28;108358;-81
2021/12/04 05:13:18;;;;;;;46.47;17.08;;;4.60;99.90;;;;;;4991814;28;177000;-81
2021/12/04 05:20:53;;;;;;;49.33;17.50;;;4.60;99.90;;;;;;5010673;28;20050;-81
2021/12/04 05:23:23;;;;;;;56.15;17.90;;;4.60;99.90;;;;;;5024210;28;255278;-81
2021/12/04 05:25:50;;;;;;;47.53;18.45;;;4.60;99.90;;;;;;5037032;28;20048;-81
2021/12/04 05:28:17;;;;;;;52.00;18.40;;;4.60;99.90;;;;;;5016265;28;267741;-83
2021/12/04 05:30:43;;;;;;;52.00;19.23;;;4.60;99.90;;;;;;5036783;28;20141;-80
2021/12/04 05:33:09;;;;;;;49.33;17.60;;;4.60;99.90;;;;;;5036201;28;264060;-81
2021/12/04 05:35:35;;;;;;;52.85;19.00;;;4.60;99.90;;;;;;5061164;28;20048;-81
2021/12/04 05:38:04;;;;;;;50.67;18.30;;;4.60;99.90;;;;;;5054928;28;20060;-81
2021/12/04 05:40:30;;;;;;;58.50;18.38;;;4.60;99.90;;;;;;5016632;28;152634;-81
2021/12/04 05:43:01;;;;;;;61.55;19.48;;;4.60;99.90;;;;;;5052835;28;20049;-81
2021/12/04 05:45:31;;;;;;;54.47;18.35;;;4.60;99.90;;;;;;5026100;28;265932;-81
2021/12/04 05:48:25;;;;;;;56.00;17.60;;;4.60;99.90;;;;;;5028983;28;20119;-81
2021/12/04 05:55:52;;;;;;;67.38;20.05;;;4.60;99.90;;;;;;5044966;28;20056;-81
2021/12/04 05:58:21;;;;;;;67.50;19.03;;;4.60;99.90;;;;;;5042778;28;256641;-81
2021/12/04 06:00:47;;;;;;;58.72;19.25;;;4.60;99.90;;;;;;5040528;28;20068;-80
2021/12/04 06:03:14;;;;;;;66.10;19.83;;;4.60;99.90;;;;;;4996991;28;269129;-80
2021/12/04 06:05:40;;;;;;;77.45;19.50;;;4.60;99.90;;;;;;5044861;28;20053;-82
2021/12/04 06:08:06;;;;;;;69.30;19.77;;;4.60;99.90;;;;;;5045972;28;20055;-82
2021/12/04 06:10:32;;;;;;;63.80;20.15;;;4.60;99.90;;;;;;5014228;28;255347;-82
2021/12/04 06:12:58;;;;;;;73.90;20.45;;;4.60;99.90;;;;;;5048108;28;20048;-81
2021/12/04 06:15:25;;;;;;;75.95;19.92;;;4.60;99.90;;;;;;5025646;28;249484;-81
2021/12/04 06:17:53;;;;;;;72.15;19.23;;;4.60;99.90;;;;;;5047604;28;20044;-81
2021/12/04 06:23:05;;;;;;;75.72;18.85;;;4.60;99.90;;;;;;5050169;28;20059;-82
2021/12/04 06:25:31;;;;;;;64.28;19.40;;;4.60;99.90;;;;;;5027037;28;139775;-80
2021/12/04 06:27:57;;;;;;;72.07;20.05;;;4.60;99.90;;;;;;5028001;28;20064;-81
2021/12/04 06:30:25;;;;;;;62.08;18.70;;;4.60;99.90;;;;;;5016920;28;30005;-81
2021/12/04 06:32:53;;;;;;;73.80;19.45;;;4.60;99.90;;;;;;5048297;28;20080;-81
2021/12/04 06:35:22;;;;;;;72.95;20.45;;;4.60;99.90;;;;;;5032154;28;257940;-81
2021/12/04 06:37:49;;;;;;;58.42;19.40;;;4.60;99.90;;;;;;5043452;28;20056;-81
2021/12/04 06:40:23;;;;;;;63.03;20.98;;;4.60;99.90;;;;;;5005805;28;49332;-81
2021/12/04 06:42:50;;;;;;;66.78;19.60;;;4.60;99.90;;;;;;5028318;28;20072;-81
2021/12/04 06:45:16;;;;;;;71.45;19.50;;;4.60;99.90;;;;;;5008759;28;259099;-81
2021/12/04 06:47:51;;;;;;;70.32;20.02;;;4.60;99.90;;;;;;5025563;28;20464;-81
2021/12/04 06:50:30;;;;;;;71.10;19.38;;;4.60;99.90;;;;;;5012661;28;197415;-81
2021/12/04 06:52:59;;;;;;;58.22;19.52;;;4.70;99.90;;;;;;5026693;28;20044;-81
2021/12/04 06:55:29;;;;;;;69.93;20.98;;;4.60;99.90;;;;;;4993126;28;214348;-81
2021/12/04 06:57:58;;;;;;;71.75;20.48;;;4.60;99.90;;;;;;5024077;28;20053;-81
2021/12/04 07:00:26;;;;;;;82.68;21.70;;;4.60;99.90;;;;;;5027556;28;157791;-81
2021/12/04 07:02:53;;;;;;;84.32;20.88;;;4.60;99.90;;;;;;5043130;28;20052;-81
2021/12/04 07:05:19;;;;;;;70.47;19.58;;;4.60;99.90;;;;;;5000297;28;187023;-80
2021/12/04 07:08:05;;;;;;;81.68;18.92;;;4.70;99.90;;;;;;5060960;28;20064;-80
2021/12/04 07:10:34;;;;;;;76.03;19.60;;;4.70;99.90;;;;;;5011367;28;178815;-80
2021/12/04 07:13:04;;;;;;;83.65;20.33;;;4.60;99.90;;;;;;5026197;28;20392;-82
2021/12/04 07:15:32;;;;;;;82.82;20.13;;;4.60;99.90;;;;;;5021779;28;273851;-81
2021/12/04 07:18:00;;;;;;;81.07;20.27;;;4.60;99.90;;;;;;5032273;28;20467;-81
2021/12/04 07:20:27;;;;;;;95.53;21.42;;;4.60;99.90;;;;;;5024792;28;258560;-82
2021/12/04 07:22:54;;;;;;;83.68;20.25;;;4.70;99.90;;;;;;5014701;28;20049;-80
2021/12/04 07:25:21;;;;;;;71.80;19.88;;;4.60;99.90;;;;;;5007201;28;96754;-80
2021/12/04 07:27:50;;;;;;;82.60;20.23;;;4.60;99.90;;;;;;5041672;28;20065;-81
2021/12/04 07:30:20;;;;;;;93.57;21.63;;;4.70;99.90;;;;;;5020785;28;299092;-80
2021/12/04 07:32:48;;;;;;;78.00;20.23;;;4.60;99.90;;;;;;5041945;28;20065;-80
2021/12/04 07:35:15;;;;;;;85.10;21.20;;;4.60;99.90;;;;;;5023921;28;246950;-81
2021/12/04 07:37:42;;;;;;;80.32;20.38;;;4.60;99.90;;;;;;5041980;28;20508;-81
2021/12/04 07:40:10;;;;;;;78.25;21.17;;;4.70;99.90;;;;;;4993480;28;167609;-81
2021/12/04 07:42:36;;;;;;;75.70;20.27;;;4.60;99.90;;;;;;5047897;28;20300;-80
2021/12/04 07:45:05;;;;;;;76.50;19.23;;;4.70;99.90;;;;;;5004793;28;207792;-81
2021/12/04 07:47:31;;;;;;;87.03;19.95;;;4.70;99.90;;;;;;5044929;28;20044;-81
2021/12/04 07:49:57;;;;;;;82.18;19.13;;;4.70;99.90;;;;;;5016133;28;163709;-81
2021/12/04 07:52:43;;;;;;;92.50;20.33;;;4.60;99.90;;;;;;5033078;28;20044;-80
2021/12/04 07:55:09;;;;;;;80.13;19.25;;;4.60;99.90;;;;;;5006465;28;240660;-81
2021/12/04 07:57:41;;;;;;;66.97;18.67;;;4.70;99.90;;;;;;5046912;28;20045;-82
2021/12/04 08:00:12;;;;;;;80.10;19.52;;;4.60;99.90;;;;;;4658689;28;10002872;-80
2021/12/04 08:02:43;;;;;;;64.05;18.13;;;4.60;99.90;;;;;;5043546;28;20064;-81
2021/12/04 08:05:10;;;;;;;72.70;18.80;;;4.60;99.90;;;;;;5001801;28;155788;-81
2021/12/04 08:07:39;;;;;;;72.85;18.17;;;4.60;99.90;;;;;;5015101;28;20060;-81
2021/12/04 08:10:10;;;;;;;67.32;18.10;;;4.60;99.90;;;;;;5024615;28;270884;-83
2021/12/04 08:12:37;;;;;;;82.80;18.42;;;4.60;99.90;;;;;;5014843;28;20052;-81
2021/12/04 08:15:05;;;;;;;67.47;17.92;;;4.50;99.90;;;;;;4717568;28;8997195;-82
2021/12/04 08:17:32;;;;;;;59.50;16.63;;;4.60;99.90;;;;;;5048553;28;20053;-81
2021/12/04 08:19:58;;;;;;;60.00;18.15;;;4.60;99.90;;;;;;5022221;28;20056;-79
2021/12/04 08:22:25;;;;;;;62.20;16.70;;;4.60;99.90;;;;;;5036606;28;20064;-81
2021/12/04 08:24:52;;;;;;;41.40;14.65;;;4.60;99.90;;;;;;5002243;28;80544;-80
2021/12/04 08:27:21;;;;;;;45.92;15.60;;;4.60;99.90;;;;;;5012948;28;20730;-81
2021/12/04 08:29:47;;;;;;;44.40;14.63;;;4.70;99.90;;;;;;5011164;28;231607;-82
2021/12/04 08:32:17;;;;;;;35.33;13.95;;;4.60;99.90;;;;;;5027622;28;20044;-82
2021/12/04 08:34:43;;;;;;;35.78;13.13;;;4.60;99.90;;;;;;5016109;28;143326;-82
2021/12/04 08:37:09;;;;;;;33.22;13.30;;;4.60;99.90;;;;;;5043895;28;20046;-82
2021/12/04 08:39:35;;;;;;;30.75;13.05;;;4.60;99.90;;;;;;5007946;28;265006;-81
2021/12/04 08:42:01;;;;;;;32.00;12.43;;;4.60;99.90;;;;;;5039593;28;20053;-82
2021/12/04 08:44:29;;;;;;;33.30;12.70;;;4.60;99.90;;;;;;5024207;28;248182;-81
2021/12/04 08:46:55;;;;;;;29.80;13.52;;;4.60;99.90;;;;;;5027564;28;20068;-81
2021/12/04 08:49:23;;;;;;;28.88;13.35;;;4.60;99.90;;;;;;4994127;28;99373;-82
2021/12/04 08:51:49;;;;;;;29.17;12.88;;;4.60;99.90;;;;;;5021406;28;20053;-81
2021/12/04 08:54:15;;;;;;;30.52;13.30;;;4.60;99.90;;;;;;5002926;28;164615;-81
2021/12/04 08:56:41;;;;;;;29.50;12.93;;;4.70;99.90;;;;;;5033663;28;20060;-79
2021/12/04 08:59:08;;;;;;;26.33;12.90;;;4.70;99.90;;;;;;4994353;28;220408;-80
2021/12/04 09:01:41;;;;;;;27.33;13.80;;;4.70;99.90;;;;;;4993476;28;20999;-80
2021/12/04 09:04:15;;;;;;;26.92;14.00;;;4.80;99.90;;;;;;5011537;28;159138;-80
2021/12/04 09:06:42;;;;;;;32.55;15.07;;;4.80;99.90;;;;;;5020046;28;20067;-80
2021/12/04 09:09:10;;;;;;;28.73;14.27;;;4.80;99.90;;;;;;5025684;28;272670;-80
2021/12/04 09:11:46;;;;;;;28.50;14.85;;;4.90;99.90;;;;;;5043419;28;20064;-79
2021/12/04 09:14:14;;;;;;;32.55;15.25;;;4.80;99.90;;;;;;5035838;28;229734;-80
2021/12/04 09:16:40;;;;;;;31.48;16.42;;;4.90;99.90;;;;;;5049853;28;20049;-80
2021/12/04 09:19:07;;;;;;;30.52;16.30;;;4.90;99.90;;;;;;5020734;28;281966;-80
2021/12/04 09:21:35;;;;;;;28.42;14.93;;;4.90;99.90;;;;;;5024962;28;20044;-81
2021/12/04 09:24:07;;;;;;;29.00;15.40;;;4.90;99.90;;;;;;5032454;28;226834;-80
2021/12/04 10:34:27;;;;;;;25.58;13.18;;;5.40;99.90;;;;;;4914458;29;224545;-79
2021/12/04 10:36:53;;;;;;;23.73;12.60;;;5.40;99.90;;;;;;4927757;29;20055;-81
2021/12/04 10:39:20;;;;;;;23.40;13.32;;;5.50;99.90;;;;;;4908550;29;63385;-79
2021/12/04 10:41:47;;;;;;;25.23;12.13;;;5.50;99.90;;;;;;4930678;29;20537;-80
2021/12/04 10:44:15;;;;;;;25.88;13.18;;;5.50;99.90;;;;;;4906867;28;179316;-81
2021/12/04 10:47:04;;;;;;;24.45;12.50;;;5.50;99.90;;;;;;4934051;28;20075;-80
2021/12/04 10:52:30;;;;;;;23.05;12.18;;;5.60;99.90;;;;;;4927946;29;20056;-80
2021/12/04 10:55:21;;;;;;;25.52;13.18;;;5.60;99.90;;;;;;4905072;29;181007;-79
2021/12/04 11:00:35;;;;;;;25.63;13.32;;;5.50;99.90;;;;;;4894286;29;168924;-79
2021/12/04 11:03:42;;;;;;;27.08;15.68;;;5.40;99.90;;;;;;4976711;28;20439;-80
2021/12/04 11:06:39;;;;;;;23.08;12.07;;;5.50;99.90;;;;;;4944132;28;181394;-80
2021/12/04 11:43:15;;;;;;;33.75;16.08;;;5.60;99.90;;;;;;4992950;28;251872;-70
2021/12/04 11:48:35;;;;;;;33.05;16.05;;;5.60;99.90;;;;;;4997049;28;80616;-69
2021/12/04 11:51:04;;;;;;;37.83;17.15;;;5.60;99.90;;;;;;5004602;28;20038;-69
2021/12/04 11:53:33;;;;;;;36.53;17.45;;;5.60;99.90;;;;;;4997187;28;77310;-68
2021/12/04 11:56:00;;;;;;;34.17;14.70;;;5.60;99.90;;;;;;4999806;28;20054;-68
2021/12/04 11:58:33;;;;;;;33.40;15.60;;;5.50;99.90;;;;;;5003154;28;23779;-69
2021/12/04 12:01:27;;;;;;;37.10;16.70;;;5.50;99.90;;;;;;5000541;28;20046;-68
2021/12/04 12:03:57;;;;;;;35.83;16.23;;;5.50;99.90;;;;;;4980981;28;252559;-69
2021/12/04 12:06:37;;;;;;;36.00;16.33;;;5.50;99.90;;;;;;5033432;28;20084;-69
2021/12/04 12:09:09;;;;;;;40.05;16.33;;;5.50;99.90;;;;;;5044198;28;278254;-68
2021/12/04 12:11:35;;;;;;;36.05;16.40;;;5.60;99.90;;;;;;5056077;28;20052;-69
2021/12/04 12:14:11;;;;;;;37.28;16.30;;;5.60;99.90;;;;;;5036780;28;258875;-68
2021/12/04 12:16:51;;;;;;;36.08;17.08;;;5.60;99.90;;;;;;5053186;28;20898;-69
2021/12/04 12:19:30;;;;;;;38.15;16.80;;;5.60;99.90;;;;;;5027077;28;90897;-69
2021/12/04 12:22:02;;;;;;;42.15;19.25;;;5.60;99.90;;;;;;5037873;28;20080;-70
2021/12/04 12:37:51;;;;;;;46.28;20.90;;;5.60;99.90;;;;;;5011640;28;20522;-70
2021/12/04 12:40:26;;;;;;;48.92;21.05;;;5.60;99.90;;;;;;4966543;28;20065;-70
2021/12/04 12:42:52;;;;;;;49.65;22.13;;;5.50;99.90;;;;;;5007479;28;20066;-71
2021/12/04 12:45:24;;;;;;;45.53;21.75;;;5.50;99.90;;;;;;5006040;28;215851;-70
2021/12/04 12:48:01;;;;;;;46.28;21.45;;;5.50;99.90;;;;;;5008085;28;20042;-70
2021/12/04 12:50:29;;;;;;;47.70;21.35;;;5.50;99.90;;;;;;5003367;28;268335;-69
2021/12/04 12:53:02;;;;;;;48.58;21.70;;;5.50;99.90;;;;;;5010181;28;20057;-70
2021/12/04 12:55:32;;;;;;;54.58;22.52;;;5.60;99.90;;;;;;5006262;28;268530;-70
2021/12/04 12:58:21;;;;;;;50.47;22.15;;;5.50;99.90;;;;;;5009616;28;20041;-70
2021/12/04 13:12:07;;;;;;;53.30;22.55;;;5.60;99.90;;;;;;5039905;28;20060;-70
2021/12/04 13:14:46;;;;;;;52.88;22.50;;;5.60;99.90;;;;;;5025540;28;192954;-69
2021/12/04 13:17:22;;;;;;;53.60;22.52;;;5.60;99.90;;;;;;5031451;28;20068;-67
2021/12/04 13:19:53;;;;;;;51.53;22.33;;;5.60;99.90;;;;;;5033050;28;27821;-70
2021/12/04 13:22:22;;;;;;;50.55;23.17;;;5.60;99.90;;;;;;5032519;28;20060;-70
2021/12/04 13:24:53;;;;;;;50.22;22.70;;;5.60;99.90;;;;;;5033677;28;103759;-71
2021/12/04 13:30:00;;;;;;;55.63;22.35;;;5.60;99.90;;;;;;5034528;28;275115;-69
2021/12/04 13:32:32;;;;;;;53.83;22.45;;;5.60;99.90;;;;;;5032773;28;20042;-70
2021/12/04 13:35:15;;;;;;;52.00;21.60;;;5.60;99.90;;;;;;5038933;28;252968;-70
2021/12/04 13:37:42;;;;;;;49.97;21.60;;;5.60;99.90;;;;;;5028790;28;20503;-70
2021/12/04 13:40:13;;;;;;;50.35;20.58;;;5.60;99.90;;;;;;5034928;28;67838;-70
2021/12/04 13:42:40;;;;;;;52.28;22.05;;;5.60;99.90;;;;;;5012432;28;20080;-71
2021/12/04 13:45:09;;;;;;;54.20;22.48;;;5.70;99.90;;;;;;5046769;28;70596;-70
2021/12/04 13:47:37;;;;;;;50.78;21.88;;;5.70;99.90;;;;;;5027232;28;20491;-70
2021/12/04 13:53:16;;;;;;;51.38;22.92;;;5.70;99.90;;;;;;5001299;28;20061;-70
2021/12/04 13:55:48;;;;;;;54.83;23.42;;;5.70;99.90;;;;;;4992691;28;20123;-70
2021/12/04 13:58:14;;;;;;;59.15;23.40;;;5.70;99.90;;;;;;5004450;28;233167;-70
2021/12/04 14:00:42;;;;;;;56.63;24.50;;;5.70;99.90;;;;;;4989832;28;20196;-71
2021/12/04 14:03:09;;;;;;;55.08;24.40;;;5.70;99.90;;;;;;5019911;28;20522;-70
2021/12/04 14:05:35;;;;;;;53.75;24.30;;;5.70;99.90;;;;;;4960654;28;125618;-70
2021/12/04 14:08:05;;;;;;;66.55;24.00;;;5.70;99.90;;;;;;4983209;28;20178;-71
2021/12/04 14:10:44;;;;;;;53.28;23.48;;;5.70;99.90;;;;;;4989528;28;153023;-70
2021/12/04 14:13:13;;;;;;;58.95;23.15;;;5.70;99.90;;;;;;4987532;28;219263;-71
2021/12/04 14:15:50;;;;;;;51.97;23.13;;;5.70;99.90;;;;;;4988501;28;20057;-70
2021/12/04 14:18:18;;;;;;;58.58;24.60;;;5.70;99.90;;;;;;4989398;28;98161;-70
2021/12/04 14:20:48;;;;;;;58.80;25.70;;;5.70;99.90;;;;;;5003112;28;20521;-70
2021/12/04 14:23:15;;;;;;;64.00;27.02;;;5.70;99.90;;;;;;4984142;28;116897;-70
2021/12/04 14:25:43;;;;;;;67.50;27.77;;;5.70;99.90;;;;;;4997434;28;20065;-70
2021/12/04 14:28:15;;;;;;;65.70;28.45;;;5.70;99.90;;;;;;5002647;28;277103;-70
2021/12/04 14:30:46;;;;;;;68.00;28.63;;;5.70;99.90;;;;;;5033570;28;20064;-70
2021/12/04 14:33:20;;;;;;;59.83;28.08;;;5.60;99.90;;;;;;5006995;28;257955;-69
2021/12/04 14:35:47;;;;;;;64.10;27.08;;;5.60;99.90;;;;;;5053572;28;20438;-70
2021/12/04 14:38:18;;;;;;;58.95;27.92;;;5.60;99.90;;;;;;5009432;28;273730;-70
2021/12/04 14:40:48;;;;;;;69.37;29.27;;;5.60;99.90;;;;;;5052671;28;20049;-70
2021/12/04 14:43:19;;;;;;;77.75;30.27;;;5.60;99.90;;;;;;5005668;28;268364;-70
2021/12/04 14:45:47;;;;;;;;;;;5.60;99.90;;;;;;5053477;28;20053;-70
2021/12/04 14:48:19;;;;;;;76.97;30.85;;;5.50;99.90;;;;;;5005367;28;270129;-69
2021/12/04 14:50:50;;;;;;;78.97;32.33;;;5.50;99.90;;;;;;5053980;28;20050;-70
2021/12/04 14:53:19;;;;;;;78.53;33.38;;;5.50;99.90;;;;;;5006956;28;258956;-69
2021/12/04 14:55:48;;;;;;;80.53;33.45;;;5.50;99.90;;;;;;5040816;28;20478;-70
2021/12/04 14:58:21;;;;;;;88.32;33.15;;;5.50;99.90;;;;;;5007564;28;273940;-69
2021/12/04 15:00:54;;;;;;;75.85;32.88;;;5.50;99.90;;;;;;5052390;28;20049;-70
2021/12/04 15:03:31;;;;;;;83.30;32.97;;;5.50;99.90;;;;;;5021059;28;255616;-70
2021/12/04 15:06:00;;;;;;;81.00;32.65;;;5.50;99.90;;;;;;5034900;28;20045;-70
2021/12/04 15:08:30;;;;;;;85.25;34.20;;;5.50;99.90;;;;;;5010690;28;256917;-71
2021/12/04 15:11:10;;;;;;;88.75;35.22;;;5.40;99.90;;;;;;5034137;28;20060;-70
2021/12/04 15:13:50;;;;;;;86.35;32.45;;;5.40;99.90;;;;;;5007784;28;252825;-70
2021/12/04 15:16:19;;;;;;;91.57;33.40;;;5.40;99.90;;;;;;5030631;28;20053;-71
2021/12/04 15:18:47;;;;;;;87.45;34.20;;;5.40;99.90;;;;;;5017747;28;105655;-70
2021/12/04 15:21:17;;;;;;;88.05;33.35;;;5.40;99.90;;;;;;5045258;28;20426;-70
2021/12/04 15:23:46;;;;;;;87.53;34.53;;;5.40;99.90;;;;;;5021580;28;20096;-71
2021/12/04 15:26:19;;;;;;;80.53;32.05;;;5.40;99.90;;;;;;5046693;28;20068;-71
2021/12/04 15:28:49;;;;;;;88.72;34.35;;;5.40;99.90;;;;;;5001672;28;256182;-71
2021/12/04 15:31:18;;;;;;;88.75;32.90;;;5.40;99.90;;;;;;4978545;28;20062;-70
2021/12/04 15:33:47;;;;;;;87.43;33.28;;;5.40;99.90;;;;;;4995464;28;265487;-70
2021/12/04 15:36:44;;;;;;;80.55;32.25;;;5.40;99.90;;;;;;5027034;28;21235;-70
2021/12/04 15:39:29;;;;;;;78.57;31.98;;;5.40;99.90;;;;;;4994811;28;262923;-70
2021/12/04 15:44:54;;;;;;;81.47;31.87;;;5.40;99.90;;;;;;5014442;28;252804;-71
2021/12/04 15:47:33;;;;;;;76.47;31.40;;;5.40;99.90;;;;;;4991396;28;20065;-71
2021/12/04 15:50:23;;;;;;;76.13;31.75;;;5.40;99.90;;;;;;5017458;28;259659;-71
2021/12/04 15:55:33;;;;;;;94.60;32.63;;;5.40;99.90;;;;;;4971789;28;133471;-71
2021/12/04 15:58:06;;;;;;;76.97;32.22;;;5.40;99.90;;;;;;4998934;28;20493;-71
2021/12/04 16:00:34;;;;;;;89.60;33.45;;;5.40;99.90;;;;;;5010949;28;259895;-71
2021/12/04 16:03:05;;;;;;;88.78;33.08;;;5.40;99.90;;;;;;4999479;28;20094;-71
2021/12/04 16:05:34;;;;;;;87.97;34.38;;;5.40;99.90;;;;;;4984358;28;184597;-71
2021/12/04 16:08:07;;;;;;;90.07;33.22;;;5.40;99.90;;;;;;4999511;28;20050;-71
2021/12/04 16:10:38;;;;;;;85.82;33.38;;;5.40;99.90;;;;;;4976746;28;47738;-71
2021/12/04 16:13:08;;;;;;;80.93;31.43;;;5.40;99.90;;;;;;5003648;28;20054;-71
2021/12/04 16:15:35;;;;;;;86.47;34.45;;;5.40;99.90;;;;;;4977436;28;20145;-71
2021/12/04 16:18:02;;;;;;;88.68;34.13;;;5.40;99.90;;;;;;5004700;28;20060;-71
2021/12/04 16:20:30;;;;;;;90.53;35.97;;;5.40;99.90;;;;;;5015775;28;272547;-72
2021/12/04 16:22:58;;;;;;;84.68;33.95;;;5.40;99.90;;;;;;5001710;28;20057;-71